createdAt,value
2017-11-29T00:01:02.848Z,11.83
2017-11-29T00:03:32.764Z,15.00
2017-11-29T00:06:02.743Z,13.57
2017-11-29T00:08:32.645Z,15.53
2017-11-29T00:11:02.547Z,15.13
2017-11-29T00:13:32.563Z,16.90
2017-11-29T00:16:02.616Z,16.77
2017-11-29T00:18:32.804Z,16.47
2017-11-29T00:21:02.756Z,15.43
2017-11-29T00:23:32.710Z,16.17
2017-11-29T00:26:02.626Z,17.10
2017-11-29T00:28:32.654Z,17.30
2017-11-29T00:31:02.576Z,14.87
2017-11-29T00:33:32.482Z,17.20
2017-11-29T00:36:02.411Z,18.70
2017-11-29T00:38:32.368Z,19.80
2017-11-29T00:41:02.341Z,18.90
2017-11-29T00:43:32.246Z,18.37
2017-11-29T00:46:02.181Z,18.60
2017-11-29T00:48:32.142Z,15.83
2017-11-29T00:51:02.059Z,20.40
2017-11-29T00:53:31.991Z,22.03
2017-11-29T00:56:01.912Z,20.57
2017-11-29T00:58:31.811Z,21.90
2017-11-29T01:01:01.719Z,20.10
2017-11-29T01:03:31.649Z,21.80
2017-11-29T01:06:01.567Z,22.37
2017-11-29T01:08:31.458Z,23.50
2017-11-29T01:11:01.371Z,21.47
2017-11-29T01:13:31.307Z,20.90
2017-11-29T01:16:01.274Z,22.80
2017-11-29T01:18:31.243Z,21.27
2017-11-29T01:21:01.172Z,20.87
2017-11-29T01:23:31.109Z,22.10
2017-11-29T01:26:01.008Z,20.70
2017-11-29T01:28:30.919Z,20.13
2017-11-29T01:31:00.813Z,20.73
2017-11-29T01:33:30.820Z,20.40
2017-11-29T01:36:00.725Z,20.50
2017-11-29T01:38:30.654Z,20.60
2017-11-29T01:41:00.650Z,19.97
2017-11-29T01:43:30.624Z,19.90
2017-11-29T01:46:00.593Z,19.80
2017-11-29T01:48:30.494Z,21.57
2017-11-29T01:51:00.408Z,21.97
2017-11-29T01:53:30.315Z,21.73
2017-11-29T01:58:36.625Z,22.77
2017-11-29T02:01:06.615Z,21.20
2017-11-29T02:03:36.507Z,21.77
2017-11-29T02:06:18.031Z,20.43
2017-11-29T02:08:47.933Z,19.30
2017-11-29T02:11:17.865Z,21.37
2017-11-29T02:13:47.981Z,21.60
2017-11-29T02:16:17.916Z,19.83
2017-11-29T02:18:47.812Z,22.40
2017-11-29T02:21:17.726Z,21.17
2017-11-29T02:23:47.603Z,21.37
2017-11-29T02:26:17.504Z,22.13
2017-11-29T02:28:47.405Z,22.20
2017-11-29T02:31:17.281Z,20.97
2017-11-29T02:33:47.262Z,23.60
2017-11-29T02:36:17.174Z,22.87
2017-11-29T02:38:47.116Z,22.63
2017-11-29T02:41:28.809Z,21.10
2017-11-29T02:43:58.861Z,25.67
2017-11-29T02:46:28.770Z,24.77
2017-11-29T02:48:58.671Z,23.30
2017-11-29T02:51:28.547Z,24.83
2017-11-29T02:53:58.437Z,22.70
2017-11-29T02:56:28.327Z,26.00
2017-11-29T02:58:58.219Z,23.57
2017-11-29T03:01:28.107Z,23.03
2017-11-29T03:03:58.002Z,23.77
2017-11-29T03:06:27.923Z,24.63
2017-11-29T03:08:57.806Z,23.07
2017-11-29T03:11:27.728Z,25.40
2017-11-29T03:13:57.668Z,22.73
2017-11-29T03:16:27.582Z,25.80
2017-11-29T03:18:57.467Z,24.63
2017-11-29T03:21:27.358Z,24.80
2017-11-29T03:23:57.274Z,24.83
2017-11-29T03:26:27.194Z,25.03
2017-11-29T03:28:57.111Z,25.17
2017-11-29T03:31:27.021Z,23.47
2017-11-29T03:33:56.963Z,22.10
2017-11-29T03:36:26.886Z,22.67
2017-11-29T03:38:56.808Z,24.80
2017-11-29T03:41:26.699Z,24.40
2017-11-29T03:43:56.702Z,21.37
2017-11-29T03:46:26.607Z,21.50
2017-11-29T03:48:56.497Z,18.90
2017-11-29T03:51:26.732Z,22.63
2017-11-29T03:53:56.643Z,24.37
2017-11-29T03:56:26.656Z,21.93
2017-11-29T03:58:56.573Z,23.53
2017-11-29T04:01:26.556Z,24.07
2017-11-29T04:03:56.469Z,22.00
2017-11-29T04:06:26.396Z,24.17
2017-11-29T04:08:56.296Z,25.10
2017-11-29T04:11:27.020Z,25.50
2017-11-29T04:13:56.927Z,24.03
2017-11-29T04:16:26.835Z,21.10
2017-11-29T04:18:56.734Z,22.27
2017-11-29T04:21:26.721Z,23.57
2017-11-29T04:23:56.667Z,22.17
2017-11-29T04:26:26.566Z,23.83
2017-11-29T04:28:56.484Z,21.70
2017-11-29T04:31:26.404Z,22.97
2017-11-29T04:33:56.312Z,21.20
2017-11-29T04:36:26.235Z,23.30
2017-11-29T04:38:56.147Z,19.87
2017-11-29T04:41:26.092Z,22.83
2017-11-29T04:43:56.001Z,21.00
2017-11-29T04:46:26.008Z,23.07
2017-11-29T04:48:56.508Z,23.20
2017-11-29T04:51:26.401Z,21.80
2017-11-29T04:53:56.317Z,24.60
2017-11-29T04:56:26.232Z,24.77
2017-11-29T04:58:56.208Z,23.30
2017-11-29T05:01:26.222Z,24.00
2017-11-29T05:03:56.144Z,22.93
2017-11-29T05:06:26.043Z,23.37
2017-11-29T05:08:55.950Z,22.60
2017-11-29T05:11:25.847Z,27.67
2017-11-29T05:13:55.837Z,25.50
2017-11-29T05:16:25.815Z,25.57
2017-11-29T05:18:55.728Z,23.47
2017-11-29T05:21:25.637Z,25.23
2017-11-29T05:23:55.540Z,25.30
2017-11-29T05:26:25.432Z,26.13
2017-11-29T05:28:55.327Z,25.07
2017-11-29T05:31:25.259Z,27.40
2017-11-29T05:33:55.392Z,26.70
2017-11-29T05:36:25.300Z,25.60
2017-11-29T05:38:55.196Z,25.10
2017-11-29T05:41:25.302Z,26.70
2017-11-29T05:43:55.230Z,25.73
2017-11-29T05:46:25.146Z,27.00
2017-11-29T05:48:55.066Z,23.87
2017-11-29T05:51:25.004Z,24.40
2017-11-29T05:53:54.920Z,25.73
2017-11-29T05:56:24.915Z,26.13
2017-11-29T05:58:54.899Z,26.10
2017-11-29T06:01:24.839Z,26.47
2017-11-29T06:03:54.753Z,25.57
2017-11-29T06:06:24.661Z,26.37
2017-11-29T06:08:54.579Z,25.87
2017-11-29T06:11:24.476Z,17.87
2017-11-29T06:13:54.411Z,26.90
2017-11-29T06:16:24.320Z,26.67
2017-11-29T06:18:54.280Z,26.93
2017-11-29T06:21:24.211Z,27.63
2017-11-29T06:23:54.156Z,26.10
2017-11-29T06:26:24.048Z,28.50
2017-11-29T06:28:54.036Z,26.30
2017-11-29T06:31:23.974Z,28.50
2017-11-29T06:33:53.921Z,28.07
2017-11-29T06:36:23.834Z,27.57
2017-11-29T06:38:53.766Z,28.43
2017-11-29T06:41:23.668Z,25.57
2017-11-29T06:43:53.592Z,28.53
2017-11-29T06:46:23.622Z,26.70
2017-11-29T06:48:53.526Z,26.90
2017-11-29T06:51:23.465Z,26.10
2017-11-29T06:53:53.356Z,30.37
2017-11-29T06:56:23.311Z,28.40
2017-11-29T06:58:53.225Z,28.07
2017-11-29T07:01:23.317Z,28.30
2017-11-29T07:03:53.228Z,29.13
2017-11-29T07:06:23.178Z,27.50
2017-11-29T07:08:53.093Z,27.47
2017-11-29T07:11:23.035Z,29.93
2017-11-29T07:13:52.960Z,31.07
2017-11-29T07:16:22.863Z,27.60
2017-11-29T07:18:52.778Z,29.50
2017-11-29T07:21:22.775Z,29.63
2017-11-29T07:23:52.719Z,28.50
2017-11-29T07:26:22.633Z,31.17
2017-11-29T07:28:52.563Z,28.83
2017-11-29T07:31:22.459Z,29.67
2017-11-29T07:33:52.379Z,30.90
2017-11-29T07:36:22.275Z,30.80
2017-11-29T07:38:52.251Z,29.97
2017-11-29T07:41:22.148Z,30.43
2017-11-29T07:43:52.094Z,25.40
2017-11-29T07:46:21.986Z,28.20
2017-11-29T07:48:51.915Z,28.10
2017-11-29T07:51:21.819Z,27.57
2017-11-29T07:53:51.791Z,28.67
2017-11-29T07:56:21.709Z,28.87
2017-11-29T07:58:51.641Z,28.30
2017-11-29T08:01:21.561Z,31.63
2017-11-29T08:03:51.478Z,32.00
2017-11-29T08:06:21.578Z,29.90
2017-11-29T08:08:51.483Z,32.00
2017-11-29T08:11:21.449Z,30.40
2017-11-29T08:13:51.333Z,28.30
2017-11-29T08:16:21.310Z,31.47
2017-11-29T08:18:51.218Z,30.23
2017-11-29T08:21:21.166Z,31.13
2017-11-29T08:23:51.106Z,30.43
2017-11-29T08:26:21.085Z,32.60
2017-11-29T08:28:51.012Z,31.83
2017-11-29T08:31:20.947Z,34.47
2017-11-29T08:33:50.914Z,32.77
2017-11-29T08:36:20.863Z,33.40
2017-11-29T08:38:50.784Z,35.13
2017-11-29T08:41:20.701Z,35.20
2017-11-29T08:43:50.652Z,34.50
2017-11-29T08:46:20.554Z,35.00
2017-11-29T08:48:50.500Z,32.03
2017-11-29T08:51:20.400Z,32.60
2017-11-29T08:53:50.326Z,31.00
2017-11-29T08:56:20.203Z,29.77
2017-11-29T08:58:50.150Z,32.60
2017-11-29T09:01:20.079Z,34.27
2017-11-29T09:03:49.980Z,30.73
2017-11-29T09:06:19.972Z,29.60
2017-11-29T09:08:49.882Z,30.53
2017-11-29T09:11:20.609Z,31.90
2017-11-29T09:13:50.597Z,33.97
2017-11-29T09:16:20.544Z,30.17
2017-11-29T09:18:50.620Z,32.90
2017-11-29T09:21:20.544Z,30.90
2017-11-29T09:23:50.934Z,30.80
2017-11-29T09:26:21.294Z,29.63
2017-11-29T09:28:51.245Z,32.60
2017-11-29T09:31:21.136Z,33.03
2017-11-29T09:33:51.942Z,33.20
2017-11-29T09:36:21.968Z,33.17
2017-11-29T09:38:52.918Z,33.13
2017-11-29T09:41:22.841Z,32.53
2017-11-29T09:43:52.756Z,33.93
2017-11-29T09:46:22.661Z,33.57
2017-11-29T09:48:52.601Z,34.80
2017-11-29T09:51:22.526Z,31.67
2017-11-29T09:53:52.447Z,28.30
2017-11-29T09:56:22.495Z,29.90
2017-11-29T09:58:52.429Z,32.00
2017-11-29T10:01:23.024Z,31.70
2017-11-29T10:03:52.913Z,30.10
2017-11-29T10:06:23.030Z,28.30
2017-11-29T10:08:52.928Z,28.43
2017-11-29T10:11:22.838Z,29.83
2017-11-29T10:13:52.784Z,27.20
2017-11-29T10:16:22.719Z,26.07
2017-11-29T10:18:52.723Z,27.70
2017-11-29T10:21:22.636Z,26.40
2017-11-29T10:23:52.550Z,27.20
2017-11-29T10:26:22.432Z,27.40
2017-11-29T10:28:52.383Z,26.67
2017-11-29T10:31:22.365Z,28.70
2017-11-29T10:33:52.290Z,24.33
2017-11-29T10:36:22.394Z,25.90
2017-11-29T10:38:52.404Z,28.17
2017-11-29T10:41:22.288Z,24.17
2017-11-29T10:43:52.195Z,27.53
2017-11-29T10:46:22.085Z,25.47
2017-11-29T10:48:52.024Z,27.10
2017-11-29T10:51:21.941Z,25.73
2017-11-29T10:53:51.913Z,25.13
2017-11-29T10:56:21.873Z,24.43
2017-11-29T10:58:51.858Z,23.80
2017-11-29T11:01:21.767Z,24.13
2017-11-29T11:03:51.713Z,23.30
2017-11-29T11:06:22.347Z,24.17
2017-11-29T11:08:52.574Z,26.20
2017-11-29T11:11:22.502Z,26.60
2017-11-29T11:13:52.438Z,24.77
2017-11-29T11:16:23.298Z,20.83
2017-11-29T11:18:54.171Z,25.37
2017-11-29T11:21:24.092Z,23.07
2017-11-29T11:23:54.038Z,23.20
2017-11-29T11:26:24.156Z,25.87
2017-11-29T11:28:54.139Z,24.83
2017-11-29T11:31:24.064Z,26.83
2017-11-29T11:33:53.992Z,26.70
2017-11-29T11:36:23.946Z,23.97
2017-11-29T11:38:53.875Z,22.97
2017-11-29T11:41:23.794Z,25.67
2017-11-29T11:43:53.714Z,25.13
2017-11-29T11:46:23.684Z,24.30
2017-11-29T11:48:53.570Z,25.50
2017-11-29T11:51:23.446Z,25.83
2017-11-29T11:53:53.395Z,26.07
2017-11-29T11:56:23.260Z,25.33
2017-11-29T11:58:53.148Z,22.87
2017-11-29T12:01:23.081Z,26.57
2017-11-29T12:03:53.027Z,25.03
2017-11-29T12:06:22.923Z,24.00
2017-11-29T12:08:52.856Z,26.60
2017-11-29T12:11:22.812Z,24.07
2017-11-29T12:13:52.731Z,23.63
2017-11-29T12:16:22.648Z,23.27
2017-11-29T12:18:52.595Z,23.50
2017-11-29T12:21:22.594Z,24.07
2017-11-29T12:23:52.501Z,26.00
2017-11-29T12:26:22.419Z,24.50
2017-11-29T12:28:52.310Z,23.27
2017-11-29T12:31:22.264Z,25.90
2017-11-29T12:33:52.176Z,24.90
2017-11-29T12:36:22.100Z,23.87
2017-11-29T12:38:51.986Z,24.80
2017-11-29T12:41:21.924Z,24.37
2017-11-29T12:43:51.893Z,24.33
2017-11-29T12:46:21.957Z,24.67
2017-11-29T12:49:03.539Z,23.27
2017-11-29T12:51:33.460Z,23.43
2017-11-29T12:54:03.351Z,22.20
2017-11-29T12:56:33.385Z,23.07
2017-11-29T12:59:03.335Z,24.37
2017-11-29T13:01:33.319Z,26.90
2017-11-29T13:04:03.216Z,25.30
2017-11-29T13:06:33.181Z,26.00
2017-11-29T13:09:03.246Z,27.77
2017-11-29T13:11:33.183Z,28.70
2017-11-29T13:14:03.226Z,27.77
2017-11-29T13:16:33.192Z,26.97
2017-11-29T13:19:03.087Z,26.53
2017-11-29T13:21:33.012Z,27.30
2017-11-29T13:24:17.778Z,27.30
2017-11-29T13:29:34.261Z,25.70
2017-11-29T13:32:05.640Z,24.50
2017-11-29T13:34:35.692Z,24.70
2017-11-29T13:43:01.566Z,23.97
2017-11-29T13:45:31.584Z,26.43
2017-11-29T13:48:01.570Z,26.20
2017-11-29T13:50:31.504Z,24.17
2017-11-29T13:53:02.490Z,25.43
2017-11-29T13:55:32.505Z,27.17
2017-11-29T13:58:02.926Z,26.63
2017-11-29T14:00:32.872Z,24.20
2017-11-29T14:11:57.585Z,25.60
2017-11-29T14:14:27.643Z,27.70
2017-11-29T14:16:57.587Z,25.70
2017-11-29T14:19:27.601Z,26.67
2017-11-29T14:22:00.581Z,28.63
2017-11-29T14:24:30.800Z,26.67
2017-11-29T14:27:00.854Z,25.93
2017-11-29T14:29:30.984Z,26.30
2017-11-29T14:32:00.952Z,26.00
2017-11-29T14:34:30.933Z,24.07
2017-11-29T14:37:00.876Z,25.37
2017-11-29T14:39:30.832Z,22.80
2017-11-29T14:42:01.418Z,21.10
2017-11-29T14:44:31.698Z,23.93
2017-11-29T15:00:12.662Z,20.00
2017-11-29T15:05:27.253Z,26.00
2017-11-29T15:17:45.212Z,23.57
2017-11-29T15:20:41.421Z,23.63
2017-11-29T15:51:19.348Z,21.07
2017-11-29T15:53:49.408Z,24.53
2017-11-29T15:56:19.416Z,23.50
2017-11-29T15:58:49.570Z,23.03
2017-11-29T16:01:19.544Z,24.13
2017-11-29T16:20:21.189Z,24.63
2017-11-29T16:22:51.231Z,22.60
2017-11-29T16:25:21.181Z,24.53
2017-11-29T16:27:51.210Z,24.03
2017-11-29T16:30:21.166Z,24.00
2017-11-29T16:32:51.171Z,25.00
2017-11-29T16:35:21.104Z,27.40
2017-11-29T16:37:51.153Z,24.80
2017-11-29T16:40:21.260Z,25.47
2017-11-29T16:42:51.343Z,25.37
2017-11-29T16:45:21.394Z,26.30
2017-11-29T16:47:51.359Z,27.67
2017-11-29T16:50:21.291Z,25.13
2017-11-29T16:55:26.188Z,24.60
2017-11-29T16:57:59.910Z,24.63
2017-11-29T17:00:30.159Z,22.17
2017-11-29T17:03:00.201Z,22.90
2017-11-29T17:05:30.136Z,25.40
2017-11-29T17:08:00.094Z,26.17
2017-11-29T17:10:30.149Z,25.83
2017-11-29T17:13:00.128Z,24.80
2017-11-29T17:15:30.226Z,25.33
2017-11-29T17:18:00.142Z,25.90
2017-11-29T17:20:30.036Z,27.17
2017-11-29T17:22:59.973Z,26.57
2017-11-29T17:25:29.910Z,25.33
2017-11-29T17:27:59.868Z,25.90
2017-11-29T17:30:30.041Z,26.63
2017-11-29T17:32:59.961Z,25.43
2017-11-29T17:35:29.928Z,25.53
2017-11-29T17:38:00.039Z,24.97
2017-11-29T17:40:31.018Z,21.73
2017-11-29T17:45:55.825Z,22.63
2017-11-29T17:48:26.292Z,23.20
2017-11-29T17:50:56.226Z,22.30
2017-11-29T17:53:26.193Z,22.60
2017-11-29T17:55:56.163Z,26.20
2017-11-29T17:58:26.077Z,21.87
2017-11-29T18:00:56.002Z,24.77
2017-11-29T18:03:25.971Z,24.63
2017-11-29T18:05:55.919Z,24.53
2017-11-29T18:08:25.857Z,25.10
2017-11-29T18:11:01.420Z,25.73
2017-11-29T18:13:34.055Z,24.83
2017-11-29T18:16:05.241Z,27.20
2017-11-29T18:18:35.246Z,25.67
2017-11-29T18:24:12.537Z,25.77
2017-11-29T18:26:42.612Z,25.13
2017-11-29T18:29:12.530Z,26.33
2017-11-29T18:31:43.488Z,26.17
2017-11-29T18:34:13.437Z,25.43
2017-11-29T18:36:43.416Z,26.30
2017-11-29T18:39:13.343Z,26.53
2017-11-29T18:41:43.267Z,28.03
2017-11-29T18:44:13.251Z,26.83
2017-11-29T18:49:48.600Z,27.63
2017-11-29T18:52:19.520Z,21.83
2017-11-29T18:55:03.667Z,26.53
2017-11-29T18:57:36.244Z,27.60
2017-11-29T19:00:12.580Z,23.47
2017-11-29T19:06:06.998Z,28.73
2017-11-29T19:11:23.207Z,25.33
2017-11-29T19:13:59.232Z,26.93
2017-11-29T19:16:39.387Z,27.10
2017-11-29T19:28:51.130Z,27.87
2017-11-29T19:31:21.988Z,27.80
2017-11-29T19:46:49.390Z,30.10
2017-11-29T20:02:15.458Z,25.70
2017-11-29T20:04:45.469Z,30.20
2017-11-29T20:07:15.708Z,31.87
2017-11-29T20:09:45.938Z,31.17
2017-11-29T20:15:06.204Z,33.73
2017-11-29T20:17:36.530Z,29.60
2017-11-29T20:20:06.793Z,32.30
2017-11-29T20:23:10.904Z,31.77
2017-11-29T20:44:25.182Z,29.43
2017-11-29T20:59:49.269Z,25.87
2017-11-29T21:02:23.020Z,26.43
2017-11-29T21:04:54.719Z,28.30
2017-11-29T21:07:26.524Z,31.30
2017-11-29T21:09:57.163Z,30.70
2017-11-29T21:12:30.458Z,34.53
2017-11-29T21:27:52.678Z,32.57
2017-11-29T21:30:23.441Z,31.50
2017-11-29T21:32:56.287Z,32.50
2017-11-29T22:31:35.585Z,30.70
2017-11-29T22:34:06.422Z,34.63
2017-11-29T22:36:37.320Z,33.97
2017-11-29T22:39:07.404Z,30.40
